Time;durP1;ratioP1;P1;durP2;ratioP2;P2;SDS_P1;SDS_P2;PMS_P1;PMS_P2;Temp;Humidity;BMP_temperature;BMP_pressure;BME280_temperature;BME280_humidity;BME280_pressure;Samples;Min_cycle;Max_cycle;Signal;HPM_P1;HPM_P2
2023/03/25 00:02:17;;;;;;;46.95;6.97;;;;;;;9.92;100.00;99039.56;5043798;28;20079;-67
2023/03/25 00:04:43;;;;;;;45.88;6.75;;;;;;;9.64;100.00;99018.88;5026598;28;20033;-67
2023/03/25 00:07:08;;;;;;;49.85;7.35;;;;;;;9.77;100.00;99025.84;5024813;28;20083;-66
2023/03/25 00:09:34;;;;;;;55.42;7.15;;;;;;;9.75;100.00;99028.75;5021458;28;20037;-67
2023/03/25 00:11:59;;;;;;;61.95;7.85;;;;;;;9.70;100.00;99028.66;5023489;28;20049;-66
2023/03/25 00:14:25;;;;;;;55.60;6.97;;;;;;;9.61;100.00;99011.28;5041041;28;20191;-66
2023/03/25 00:16:51;;;;;;;53.47;7.88;;;;;;;9.69;100.00;99035.06;5006618;28;20116;-67
2023/03/25 00:19:20;;;;;;;58.30;6.85;;;;;;;9.67;100.00;99023.78;5006350;28;20125;-66
2023/03/25 00:21:51;;;;;;;58.92;7.50;;;;;;;9.78;100.00;99008.69;5022514;28;20036;-66
2023/03/25 00:24:17;;;;;;;54.17;6.55;;;;;;;9.60;100.00;99010.47;5039875;28;20029;-66
2023/03/25 00:26:45;;;;;;;55.08;7.38;;;;;;;9.68;100.00;99009.28;5039327;28;20095;-66
2023/03/25 00:29:10;;;;;;;61.10;7.15;;;;;;;9.68;100.00;99017.34;5022911;28;20365;-66
2023/03/25 00:31:36;;;;;;;43.10;6.18;;;;;;;9.69;100.00;99010.91;5039975;28;20039;-66
2023/03/25 00:34:02;;;;;;;60.70;7.65;;;;;;;9.61;100.00;99012.09;5040406;28;20025;-66
2023/03/25 00:36:28;;;;;;;56.50;7.55;;;;;;;9.67;100.00;99015.72;5007030;28;20029;-66
2023/03/25 00:38:54;;;;;;;59.83;7.47;;;;;;;9.59;100.00;99006.13;5023363;28;20026;-66
2023/03/25 00:41:24;;;;;;;58.03;6.50;;;;;;;9.54;100.00;98987.25;5023172;28;20065;-66
2023/03/25 00:43:57;;;;;;;52.95;7.72;;;;;;;9.51;100.00;98995.78;5041060;28;20034;-66
2023/03/25 00:46:25;;;;;;;40.13;6.72;;;;;;;9.58;100.00;99007.19;5041621;28;20483;-66
2023/03/25 00:48:51;;;;;;;56.53;6.85;;;;;;;9.62;100.00;99002.97;5040750;28;20481;-66
2023/03/25 00:51:18;;;;;;;58.63;7.30;;;;;;;9.63;100.00;99007.31;5023456;28;20037;-67
2023/03/25 00:53:44;;;;;;;54.05;6.90;;;;;;;9.59;100.00;99003.44;5040838;28;20030;-66
2023/03/25 00:56:11;;;;;;;53.05;6.72;;;;;;;9.71;100.00;99010.69;5022542;28;20048;-66
2023/03/25 00:58:37;;;;;;;64.93;8.52;;;;;;;9.61;100.00;99011.28;5024004;28;20155;-66
2023/03/25 01:01:22;;;;;;;51.75;7.20;;;;;;;9.58;100.00;99009.88;5025846;28;20025;-66
2023/03/25 01:03:48;;;;;;;58.10;7.68;;;;;;;9.69;100.00;99010.09;5023498;28;20037;-66
2023/03/25 01:06:16;;;;;;;51.40;6.50;;;;;;;9.55;100.00;99002.31;5040665;28;20044;-66
2023/03/25 01:08:42;;;;;;;51.58;6.22;;;;;;;9.61;100.00;99011.28;5036408;28;20439;-66
2023/03/25 01:11:20;;;;;;;52.70;6.88;;;;;;;9.60;100.00;98998.88;5021623;28;20029;-66
2023/03/25 01:13:46;;;;;;;49.78;7.05;;;;;;;9.55;100.00;98985.38;5022539;28;20030;-66
2023/03/25 01:16:11;;;;;;;57.50;7.50;;;;;;;9.63;100.00;99014.53;5021931;28;20021;-66
2023/03/25 01:18:37;;;;;;;48.60;6.32;;;;;;;9.63;100.00;99010.00;5020104;28;20373;-66
2023/03/25 01:21:07;;;;;;;51.78;7.60;;;;;;;9.67;100.00;99007.66;5004439;28;20025;-67
2023/03/25 01:23:33;;;;;;;43.13;5.95;;;;;;;9.66;100.00;99014.06;5038972;28;20104;-66
2023/03/25 01:25:59;;;;;;;59.25;7.63;;;;;;;9.59;100.00;99006.13;5021515;28;20045;-66
2023/03/25 01:28:25;;;;;;;50.50;6.10;;;;;;;9.52;100.00;98992.03;5021257;28;20476;-66
2023/03/25 01:30:50;;;;;;;56.42;8.75;;;;;;;9.61;100.00;99000.53;5039482;28;20036;-66
2023/03/25 01:33:16;;;;;;;54.70;7.38;;;;;;;9.49;100.00;98992.50;5039968;28;20033;-66
2023/03/25 01:35:41;;;;;;;51.17;7.72;;;;;;;9.59;100.00;99002.63;5038929;28;20033;-66
2023/03/25 01:38:07;;;;;;;55.85;7.00;;;;;;;9.60;100.00;99005.09;5021997;28;20030;-66
2023/03/25 01:40:32;;;;;;;58.95;8.23;;;;;;;9.55;100.00;98993.44;5021570;28;20392;-67
2023/03/25 01:42:58;;;;;;;58.60;7.10;;;;;;;9.64;100.00;99003.56;5005188;28;20030;-67
2023/03/25 01:45:23;;;;;;;45.13;6.25;;;;;;;9.53;100.00;98998.22;5021787;28;20049;-67
2023/03/25 01:48:03;;;;;;;51.28;6.78;;;;;;;9.56;100.00;98997.75;5039386;28;20025;-67
2023/03/25 01:50:31;;;;;;;53.33;7.20;;;;;;;9.53;100.00;98987.47;5039247;28;20033;-67
2023/03/25 01:53:00;;;;;;;51.58;6.25;;;;;;;9.53;100.00;98987.47;5021124;28;20033;-67
2023/03/25 01:55:26;;;;;;;50.03;7.50;;;;;;;9.44;100.00;98988.88;5038623;28;20033;-67
2023/03/25 01:57:55;;;;;;;53.50;7.22;;;;;;;9.36;100.00;98971.28;5023555;28;20025;-66
2023/03/25 02:00:21;;;;;;;50.47;7.20;;;;;;;9.46;100.00;98994.84;5049698;28;20079;-66
2023/03/25 02:02:47;;;;;;;62.53;8.07;;;;;;;9.45;100.00;98988.66;5042193;28;20049;-66
2023/03/25 02:05:16;;;;;;;54.17;7.28;;;;;;;9.48;100.00;98980.13;5010019;28;20032;-66
2023/03/25 02:07:45;;;;;;;60.83;7.88;;;;;;;9.37;100.00;98973.75;5017521;28;20036;-67
2023/03/25 02:10:11;;;;;;;56.15;6.47;;;;;;;9.49;100.00;98972.91;5020343;28;20021;-66
2023/03/25 02:12:37;;;;;;;58.78;7.25;;;;;;;9.53;100.00;98971.38;5036638;28;20032;-66
2023/03/25 02:15:06;;;;;;;58.40;6.82;;;;;;;9.50;100.00;98956.53;5018462;28;20454;-66
2023/03/25 02:17:43;;;;;;;57.17;6.80;;;;;;;9.53;100.00;98950.69;5036686;28;20025;-67
2023/03/25 02:20:46;;;;;;;51.85;6.82;;;;;;;9.52;100.00;98953.63;5021557;28;20037;-67
2023/03/25 02:23:27;;;;;;;61.05;7.03;;;;;;;9.58;100.00;98966.13;5022121;28;20052;-66
2023/03/25 02:26:18;;;;;;;51.97;7.43;;;;;;;9.61;100.00;98957.59;5021627;28;20053;-67
2023/03/25 02:29:22;;;;;;;55.47;7.00;;;;;;;9.63;100.00;98955.47;5039681;28;20029;-66
2023/03/25 02:32:23;;;;;;;46.17;5.97;;;;;;;9.64;100.00;98975.91;5022111;28;20115;-66
2023/03/25 02:35:26;;;;;;;53.05;6.80;;;;;;;9.61;100.00;98969.13;5039891;28;20026;-67
2023/03/25 02:38:16;;;;;;;41.28;6.10;;;;;;;9.58;100.00;98960.75;5020985;28;20042;-66
2023/03/25 02:40:57;;;;;;;56.85;6.72;;;;;;;9.50;100.00;98945.78;5019546;28;20040;-67
2023/03/25 02:43:28;;;;;;;52.97;7.22;;;;;;;9.49;100.00;98946.84;5037721;28;20025;-66
2023/03/25 02:45:58;;;;;;;53.42;6.65;;;;;;;9.52;100.00;98942.88;5038256;28;20025;-66
2023/03/25 02:48:57;;;;;;;48.35;6.25;;;;;;;9.59;100.00;98933.63;5020467;28;20092;-67
2023/03/25 02:51:42;;;;;;;57.50;7.68;;;;;;;9.61;100.00;98936.91;5026817;28;20052;-66
2023/03/25 02:54:11;;;;;;;51.53;6.88;;;;;;;9.55;100.00;98932.50;5037050;28;20061;-66
2023/03/25 02:56:40;;;;;;;47.53;5.95;;;;;;;9.53;100.00;98937.28;5020597;28;20025;-67
2023/03/25 02:59:07;;;;;;;57.30;7.03;;;;;;;9.52;100.00;98937.53;5047845;28;20040;-67
2023/03/25 03:01:34;;;;;;;51.22;7.15;;;;;;;9.51;100.00;98949.31;5051049;28;20017;-66
2023/03/25 03:04:00;;;;;;;51.92;6.95;;;;;;;9.47;100.00;98948.97;5039114;28;20093;-66
2023/03/25 03:06:26;;;;;;;60.63;6.68;;;;;;;9.50;100.00;98945.78;5043495;28;20130;-67
2023/03/25 03:09:03;;;;;;;61.67;7.25;;;;;;;9.40;100.00;98946.44;5039230;28;20090;-67
2023/03/25 03:11:37;;;;;;;55.67;6.85;;;;;;;9.40;100.00;98946.44;5020639;28;20040;-66
2023/03/25 03:14:12;;;;;;;47.92;7.30;;;;;;;9.53;100.00;98944.50;5038679;28;20021;-67
2023/03/25 03:17:02;;;;;;;48.75;7.30;;;;;;;9.40;100.00;98941.06;5020451;28;20052;-66
2023/03/25 03:19:51;;;;;;;56.28;7.30;;;;;;;9.56;100.00;98944.03;5038941;28;20017;-67
2023/03/25 03:22:26;;;;;;;55.55;6.95;;;;;;;9.60;100.00;98934.44;5039046;28;20017;-66
2023/03/25 03:24:52;;;;;;;;;;;;;;;9.57;100.00;98941.13;5038987;28;20053;-67
2023/03/25 03:27:32;;;;;;;46.75;6.18;;;;;;;9.50;100.00;98918.13;5039737;28;19923;-66
2023/03/25 03:30:18;;;;;;;47.03;6.40;;;;;;;9.34;100.00;98928.59;5043378;28;20059;-67
2023/03/25 03:33:14;;;;;;;52.60;6.68;;;;;;;9.50;100.00;98931.56;5043608;28;20025;-67
2023/03/25 03:35:50;;;;;;;59.63;7.18;;;;;;;9.45;100.00;98929.59;5012936;28;20519;-66
2023/03/25 03:38:20;;;;;;;55.03;7.55;;;;;;;9.56;100.00;98933.28;5043896;28;20151;-67
2023/03/25 03:40:54;;;;;;;55.50;7.10;;;;;;;9.51;100.00;98920.59;5043252;28;20027;-66
2023/03/25 03:43:26;;;;;;;47.67;6.47;;;;;;;9.57;100.00;98926.88;5025904;28;20030;-67
2023/03/25 03:45:57;;;;;;;52.80;7.20;;;;;;;9.52;100.00;98916.84;5042974;28;20064;-66
2023/03/25 03:48:28;;;;;;;50.67;6.60;;;;;;;9.53;100.00;98929.22;5042948;28;20085;-67
2023/03/25 03:51:47;;;;;;;58.42;7.50;;;;;;;9.59;100.00;98927.47;5025137;28;20032;-66
2023/03/25 03:54:24;;;;;;;58.72;6.20;;;;;;;9.50;100.00;98907.41;5018733;28;20037;-67
2023/03/25 03:56:52;;;;;;;53.10;7.00;;;;;;;9.63;100.00;98923.22;5043116;28;20062;-66
2023/03/25 03:59:52;;;;;;;52.03;6.43;;;;;;;9.68;100.00;98925.22;5023095;28;20060;-66
2023/03/25 04:02:39;;;;;;;43.35;6.57;;;;;;;9.72;100.00;98911.06;5007747;28;20113;-66
2023/03/25 04:05:15;;;;;;;46.92;5.82;;;;;;;9.70;100.00;98923.94;5039930;28;20034;-66
2023/03/25 04:07:55;;;;;;;49.72;6.72;;;;;;;9.65;100.00;98926.50;5041564;28;20571;-66
2023/03/25 04:11:16;;;;;;;57.70;7.95;;;;;;;9.66;100.00;98917.38;5022687;28;20029;-66
2023/03/25 04:13:46;;;;;;;47.13;7.15;;;;;;;9.68;100.00;98911.78;4945786;29;20462;-66
2023/03/25 04:16:11;;;;;;;59.83;7.30;;;;;;;9.70;100.00;98915.03;5026519;28;20045;-67
2023/03/25 04:18:38;;;;;;;56.03;7.50;;;;;;;9.69;100.00;98906.16;5007381;28;20057;-66
2023/03/25 04:21:04;;;;;;;57.08;7.45;;;;;;;9.63;100.00;98913.31;5024086;28;20075;-67
2023/03/25 04:23:30;;;;;;;58.35;6.43;;;;;;;9.62;100.00;98910.88;5041616;28;20045;-66
2023/03/25 04:25:56;;;;;;;59.10;7.53;;;;;;;9.67;100.00;98912.81;5041446;28;20131;-66
2023/03/25 04:28:22;;;;;;;52.80;6.95;;;;;;;9.69;100.00;98914.22;5024499;28;20437;-66
2023/03/25 04:30:49;;;;;;;56.28;6.88;;;;;;;9.58;100.00;98899.78;5008014;28;20064;-66
2023/03/25 04:33:14;;;;;;;51.22;6.63;;;;;;;9.60;100.00;98900.38;5042256;28;20120;-67
2023/03/25 04:35:40;;;;;;;50.42;6.57;;;;;;;9.43;100.00;98867.28;5041808;28;20092;-66
2023/03/25 04:38:06;;;;;;;53.22;6.03;;;;;;;9.63;100.00;98897.22;5008037;28;20587;-68
2023/03/25 04:40:32;;;;;;;50.78;6.60;;;;;;;9.48;100.00;98898.78;5040866;28;20029;-66
2023/03/25 04:42:58;;;;;;;53.88;6.22;;;;;;;9.48;100.00;98893.41;4992098;28;20199;-66
2023/03/25 04:45:24;;;;;;;53.85;7.20;;;;;;;9.52;100.00;98897.25;5042339;28;20033;-66
2023/03/25 04:47:52;;;;;;;59.53;6.47;;;;;;;9.56;100.00;98895.72;5024275;28;20041;-66
2023/03/25 04:50:29;;;;;;;65.05;7.20;;;;;;;9.52;100.00;98890.00;5041576;28;20021;-66
2023/03/25 04:52:59;;;;;;;62.45;7.22;;;;;;;9.50;100.00;98886.72;5042199;28;20372;-66
2023/03/25 04:55:25;;;;;;;55.63;7.00;;;;;;;9.51;100.00;98895.63;5041921;28;20040;-66
2023/03/25 04:57:52;;;;;;;45.20;5.88;;;;;;;9.55;100.00;98896.78;5023996;28;20037;-66
2023/03/25 05:00:23;;;;;;;63.80;8.32;;;;;;;9.58;100.00;98898.97;5023192;28;20067;-67
2023/03/25 05:02:52;;;;;;;42.25;6.72;;;;;;;9.49;100.00;98905.78;5040102;28;20021;-66
2023/03/25 05:05:20;;;;;;;51.00;6.35;;;;;;;9.37;100.00;98911.16;5040513;28;20018;-67
2023/03/25 05:07:48;;;;;;;49.63;6.47;;;;;;;9.46;100.00;98946.53;5022552;28;20140;-66
2023/03/25 05:10:15;;;;;;;50.50;6.43;;;;;;;9.34;100.00;98946.56;5039936;28;20018;-67
2023/03/25 05:12:40;;;;;;;43.28;5.35;;;;;;;9.24;100.00;98925.69;5022334;28;20158;-67
2023/03/25 05:15:07;;;;;;;39.72;5.93;;;;;;;9.36;100.00;98925.66;5040028;28;20492;-68
2023/03/25 05:17:35;;;;;;;40.00;4.97;;;;;;;9.37;100.00;98916.53;5022188;28;20032;-67
2023/03/25 05:20:00;;;;;;;39.42;5.32;;;;;;;9.43;100.00;98917.47;5040069;28;20038;-67
2023/03/25 05:22:25;;;;;;;40.13;6.00;;;;;;;9.40;100.00;98914.22;5021921;28;20106;-67
2023/03/25 05:24:53;;;;;;;55.65;6.65;;;;;;;9.47;100.00;98927.50;5039900;28;20056;-67
2023/03/25 05:27:19;;;;;;;51.65;6.78;;;;;;;9.51;100.00;98935.91;5040281;28;20072;-67
2023/03/25 05:29:45;;;;;;;61.85;6.78;;;;;;;9.40;100.00;98911.53;5021627;28;20029;-67
2023/03/25 05:32:17;;;;;;;66.35;7.32;;;;;;;9.52;100.00;98926.78;5005717;28;20033;-67
2023/03/25 05:34:46;;;;;;;58.78;7.78;;;;;;;9.60;100.00;98926.38;5022578;28;20075;-67
2023/03/25 05:37:13;;;;;;;58.10;8.05;;;;;;;9.52;100.00;98926.78;5022321;28;20492;-67
2023/03/25 05:39:38;;;;;;;57.38;6.90;;;;;;;9.52;100.00;98938.34;5039538;28;20059;-67
2023/03/25 05:42:05;;;;;;;53.40;6.32;;;;;;;9.45;100.00;98921.56;5039626;28;20076;-67
2023/03/25 05:44:30;;;;;;;56.75;7.10;;;;;;;9.51;100.00;98935.91;5039518;28;20092;-67
2023/03/25 05:46:59;;;;;;;59.17;7.45;;;;;;;9.53;100.00;98944.50;5021288;28;20167;-68
2023/03/25 05:49:25;;;;;;;66.07;7.10;;;;;;;9.46;100.00;98911.63;5022023;28;20041;-68
2023/03/25 05:51:52;;;;;;;59.08;7.05;;;;;;;9.61;100.00;98942.28;5020332;28;20026;-67
2023/03/25 05:54:18;;;;;;;58.83;7.05;;;;;;;9.49;100.00;98917.31;5017461;28;20033;-67
2023/03/25 05:56:44;;;;;;;52.95;6.47;;;;;;;9.52;100.00;98935.66;5035843;28;20029;-67
2023/03/25 05:59:10;;;;;;;62.65;7.35;;;;;;;9.60;100.00;98935.28;5020145;28;20094;-67
2023/03/25 06:01:36;;;;;;;43.53;5.80;;;;;;;9.59;100.00;98938.19;5038043;28;20075;-67
2023/03/25 06:04:02;;;;;;;47.70;7.40;;;;;;;9.50;100.00;98907.41;5020310;28;20426;-67
2023/03/25 06:06:30;;;;;;;51.35;7.28;;;;;;;9.63;100.00;98936.66;5019868;28;20025;-67
2023/03/25 06:08:57;;;;;;;57.78;6.63;;;;;;;9.57;100.00;98918.81;5020533;28;20021;-67
2023/03/25 06:11:22;;;;;;;62.17;7.00;;;;;;;9.68;100.00;98942.16;5020390;28;20144;-67
2023/03/25 06:13:48;;;;;;;61.45;7.30;;;;;;;9.68;100.00;98931.41;5019940;28;20060;-68
2023/03/25 06:16:19;;;;;;;60.55;7.30;;;;;;;9.77;100.00;98934.53;5020292;28;20040;-67
2023/03/25 06:18:49;;;;;;;57.28;6.72;;;;;;;9.83;100.00;98930.84;5037772;28;20098;-68
2023/03/25 06:21:17;;;;;;;53.33;6.95;;;;;;;9.85;100.00;98934.13;5037856;28;20095;-67
2023/03/25 06:23:42;;;;;;;54.65;6.45;;;;;;;9.93;100.00;98938.28;5019794;28;20044;-68
2023/03/25 06:26:07;;;;;;;56.55;7.65;;;;;;;9.62;100.00;98909.00;5020465;28;20057;-67
2023/03/25 06:28:34;;;;;;;53.15;6.53;;;;;;;9.88;100.00;98939.84;4988244;28;20412;-68
2023/03/25 06:31:02;;;;;;;54.63;6.65;;;;;;;9.98;100.00;98935.72;5003558;28;20038;-68
2023/03/25 06:33:28;;;;;;;50.05;6.88;;;;;;;9.92;100.00;98931.31;5019777;28;20040;-68
2023/03/25 06:35:53;;;;;;;53.85;7.07;;;;;;;9.98;100.00;98938.41;5037854;28;20033;-68
2023/03/25 06:38:22;;;;;;;45.58;6.55;;;;;;;9.98;100.00;98941.91;5020052;28;20512;-68
2023/03/25 06:40:48;;;;;;;56.88;7.45;;;;;;;10.01;100.00;98948.69;5037214;28;20432;-68
2023/03/25 06:43:13;;;;;;;44.63;7.10;;;;;;;9.95;100.00;98939.69;5037691;28;20017;-68
2023/03/25 06:45:39;;;;;;;42.05;6.03;;;;;;;9.97;100.00;98950.22;5038541;28;20022;-67
2023/03/25 06:48:05;;;;;;;44.38;5.85;;;;;;;10.09;100.00;98948.28;5020870;28;20112;-68
2023/03/25 06:50:31;;;;;;;57.78;6.70;;;;;;;10.01;100.00;98929.88;5037850;28;20112;-68
2023/03/25 06:52:57;;;;;;;50.33;6.63;;;;;;;10.06;100.00;98932.63;5004582;28;20103;-67
2023/03/25 06:55:23;;;;;;;48.25;7.38;;;;;;;10.16;100.00;98946.25;5020519;28;20027;-67
2023/03/25 06:57:48;;;;;;;46.58;6.32;;;;;;;9.89;100.00;98906.53;5019546;28;20045;-67
2023/03/25 07:00:19;;;;;;;49.72;6.82;;;;;;;10.15;100.00;98944.63;5031081;28;20024;-68
2023/03/25 07:02:47;;;;;;;49.58;6.93;;;;;;;10.05;100.00;98939.06;5077430;28;20107;-67
2023/03/25 07:05:12;;;;;;;51.25;6.68;;;;;;;10.05;100.00;98939.88;5081305;28;20028;-68
2023/03/25 07:07:37;;;;;;;52.95;6.10;;;;;;;10.20;100.00;98958.16;5063380;28;20024;-67
2023/03/25 07:10:03;;;;;;;45.15;6.10;;;;;;;10.12;100.00;98943.22;5080536;28;20031;-69
2023/03/25 07:12:29;;;;;;;45.45;5.90;;;;;;;10.18;100.00;98946.81;5046581;28;20024;-68
2023/03/25 07:14:56;;;;;;;51.75;6.55;;;;;;;10.23;100.00;98963.06;5063165;28;20052;-68
2023/03/25 07:17:22;;;;;;;48.72;6.57;;;;;;;10.18;100.00;98960.25;5082960;28;20372;-67
2023/03/25 07:19:48;;;;;;;43.08;6.55;;;;;;;10.25;100.00;98966.31;5064572;28;20030;-66
2023/03/25 07:22:13;;;;;;;48.92;6.57;;;;;;;10.32;100.00;98974.25;5064070;28;20119;-66
2023/03/25 07:24:39;;;;;;;36.17;5.95;;;;;;;10.30;100.00;98960.25;5081990;28;20566;-66
2023/03/25 07:27:04;;;;;;;44.00;6.55;;;;;;;10.40;100.00;98975.72;5064267;28;20040;-66
2023/03/25 07:29:30;;;;;;;47.25;7.32;;;;;;;10.41;100.00;98959.34;5081894;28;20043;-67
2023/03/25 07:31:55;;;;;;;39.47;6.15;;;;;;;10.52;100.00;98977.28;5064222;28;20116;-68
2023/03/25 07:34:21;;;;;;;38.88;5.78;;;;;;;10.54;100.00;98967.09;5082754;28;20028;-67
2023/03/25 07:36:47;;;;;;;50.95;6.95;;;;;;;10.60;100.00;98983.34;5082238;28;20024;-66
2023/03/25 07:39:13;;;;;;;46.70;5.93;;;;;;;10.58;100.00;98964.75;5058614;28;20123;-64
2023/03/25 07:41:38;;;;;;;43.10;5.97;;;;;;;10.67;100.00;98981.28;5017140;28;20029;-65
2023/03/25 07:44:04;;;;;;;43.22;6.30;;;;;;;10.73;100.00;98983.00;5078868;28;20117;-66
2023/03/25 07:46:29;;;;;;;44.58;6.40;;;;;;;10.73;100.00;98985.69;5035766;28;20160;-67
2023/03/25 07:48:55;;;;;;;39.50;4.85;;;;;;;10.57;100.00;98971.19;5059516;28;20052;-67
2023/03/25 07:51:20;;;;;;;51.88;6.88;;;;;;;10.77;100.00;98987.66;5051172;28;20032;-67
2023/03/25 07:53:46;;;;;;;47.92;7.03;;;;;;;10.82;100.00;98990.41;5045941;28;20024;-68
2023/03/25 07:56:12;;;;;;;38.47;5.70;;;;;;;10.73;100.00;98969.56;5061520;28;20058;-69
2023/03/25 07:58:38;;;;;;;48.45;6.40;;;;;;;10.91;100.00;98981.94;5074022;28;20037;-67
2023/03/25 08:01:04;;;;;;;33.40;5.28;;;;;;;11.12;100.00;98978.47;5072241;28;20082;-67
2023/03/25 08:03:32;;;;;;;40.47;6.50;;;;;;;11.16;100.00;98984.16;5032149;28;20464;-67
2023/03/25 08:06:02;;;;;;;42.22;6.50;;;;;;;11.14;100.00;98970.16;5066058;28;20104;-66
2023/03/25 08:08:30;;;;;;;45.58;6.00;;;;;;;11.25;100.00;98980.00;5064518;28;20032;-69
2023/03/25 08:10:56;;;;;;;50.00;7.03;;;;;;;11.21;100.00;98993.16;5052376;28;20094;-68
2023/03/25 08:13:22;;;;;;;37.47;5.93;;;;;;;11.26;100.00;98984.34;5025466;28;20086;-69
2023/03/25 08:15:47;;;;;;;41.58;6.18;;;;;;;11.42;100.00;98979.97;5044867;28;20518;-67
2023/03/25 08:18:13;;;;;;;41.72;6.30;;;;;;;11.40;100.00;98982.91;5043054;28;20017;-72
2023/03/25 08:20:38;;;;;;;39.38;5.45;;;;;;;11.50;100.00;98985.75;5022175;28;20074;-67
2023/03/25 08:23:09;;;;;;;42.50;5.93;;;;;;;11.50;100.00;98995.69;4997470;28;20038;-66
2023/03/25 08:25:36;;;;;;;44.72;6.38;;;;;;;11.50;100.00;99001.09;5060842;28;20147;-66
2023/03/25 08:28:02;;;;;;;42.80;5.55;;;;;;;11.55;100.00;99000.31;5080772;28;20445;-67
2023/03/25 08:30:28;;;;;;;41.67;6.28;;;;;;;11.65;100.00;99003.97;5061748;28;20032;-66
2023/03/25 08:32:54;;;;;;;41.05;5.65;;;;;;;11.62;100.00;99003.66;5061632;28;20032;-67
2023/03/25 08:35:20;;;;;;;39.15;6.32;;;;;;;11.61;100.00;98997.44;5030211;28;20036;-66
2023/03/25 08:37:46;;;;;;;39.28;5.30;;;;;;;11.61;100.00;98992.06;5060873;28;20044;-67
2023/03/25 08:40:13;;;;;;;43.67;5.30;;;;;;;11.73;100.00;99000.03;5060921;28;20044;-66
2023/03/25 08:42:38;;;;;;;36.53;4.97;;;;;;;11.69;100.00;98983.56;5081388;28;20066;-67
2023/03/25 08:45:05;;;;;;;37.00;5.80;;;;;;;11.97;100.00;99006.00;5084141;28;20017;-67
2023/03/25 08:47:30;;;;;;;35.05;5.50;;;;;;;11.95;100.00;98994.66;5046411;28;20035;-67
2023/03/25 08:49:56;;;;;;;44.50;6.00;;;;;;;11.95;100.00;98992.78;5080441;28;20025;-68
2023/03/25 08:52:22;;;;;;;37.47;5.72;;;;;;;12.13;100.00;98994.31;5062833;28;20064;-66
2023/03/25 08:54:48;;;;;;;38.15;5.53;;;;;;;12.34;100.00;99003.44;5078997;28;20024;-67
2023/03/25 08:57:13;;;;;;;32.15;4.70;;;;;;;12.53;100.00;99009.28;5061132;28;20162;-68
2023/03/25 08:59:39;;;;;;;35.70;4.95;;;;;;;12.53;100.00;98992.28;5061205;28;20352;-67
2023/03/25 09:02:05;;;;;;;31.73;4.95;;;;;;;12.59;100.00;99010.16;5079742;28;20027;-67
2023/03/25 09:04:31;;;;;;;36.10;5.18;;;;;;;12.58;100.00;99017.44;5079312;28;20115;-67
2023/03/25 09:06:56;;;;;;;32.97;4.90;;;;;;;12.33;100.00;99011.78;5078750;28;20032;-67
2023/03/25 09:09:22;;;;;;;34.70;5.97;;;;;;;12.22;100.00;99021.66;5062565;28;20028;-67
2023/03/25 09:11:48;;;;;;;36.08;5.30;;;;;;;11.90;100.00;99026.94;5081632;28;20028;-67
2023/03/25 09:14:13;;;;;;;27.98;4.43;;;;;;;11.91;100.00;99026.69;5064164;28;20027;-68
2023/03/25 09:16:39;;;;;;;31.73;4.38;;;;;;;11.84;100.00;99022.53;5085108;28;20046;-66
2023/03/25 09:19:05;;;;;;;33.05;5.68;;;;;;;11.96;100.00;99034.03;5069062;28;20040;-68
2023/03/25 09:21:31;;;;;;;38.10;5.53;;;;;;;12.18;100.00;99029.41;5088935;28;20035;-68
2023/03/25 09:23:56;;;;;;;35.58;5.47;;;;;;;12.28;100.00;99033.28;5083608;28;20499;-71
2023/03/25 09:26:21;;;;;;;38.72;5.80;;;;;;;12.28;100.00;99039.50;5091336;28;20067;-68
2023/03/25 09:28:47;;;;;;;40.05;5.43;;;;;;;12.15;100.00;99040.72;5092437;28;20036;-68
2023/03/25 09:31:13;;;;;;;37.50;5.78;;;;;;;12.16;100.00;99045.03;5075263;28;20024;-69
2023/03/25 09:33:39;;;;;;;32.85;5.15;;;;;;;12.05;100.00;99040.59;5085979;28;20062;-66
2023/03/25 09:36:06;;;;;;;33.45;5.25;;;;;;;11.93;100.00;99043.44;5046329;28;20538;-66
2023/03/25 09:38:33;;;;;;;33.97;5.45;;;;;;;11.81;100.00;99039.19;5081181;28;20078;-67
2023/03/25 09:41:11;;;;;;;38.78;5.78;;;;;;;11.67;100.00;99042.25;5063146;28;20036;-67
2023/03/25 09:44:21;;;;;;;32.22;5.43;;;;;;;11.56;100.00;99045.88;5079403;28;20119;-66
2023/03/25 09:46:47;;;;;;;32.03;5.25;;;;;;;11.45;100.00;99049.47;5081086;28;20024;-67
2023/03/25 09:49:17;;;;;;;30.10;5.43;;;;;;;11.41;100.00;99056.44;5079366;28;20036;-67
2023/03/25 09:51:46;;;;;;;37.22;4.97;;;;;;;11.36;100.00;99059.88;5079311;28;20428;-67
2023/03/25 09:54:17;;;;;;;39.42;5.95;;;;;;;11.43;100.00;99065.09;5063353;28;20039;-67
2023/03/25 09:56:43;;;;;;;40.58;5.47;;;;;;;11.46;100.00;99059.22;5080771;28;20032;-67
2023/03/25 09:59:19;;;;;;;31.95;5.10;;;;;;;11.49;100.00;99074.88;5062535;28;20033;-67
2023/03/25 10:02:10;;;;;;;41.00;5.88;;;;;;;11.49;100.00;99064.91;5079614;28;20033;-67
2023/03/25 10:04:57;;;;;;;37.60;5.28;;;;;;;11.68;100.00;99072.69;5080084;28;20031;-67
2023/03/25 10:07:49;;;;;;;48.80;5.78;;;;;;;11.72;100.00;99077.38;5080304;28;20043;-66
2023/03/25 10:10:18;;;;;;;42.42;5.93;;;;;;;11.64;100.00;99072.38;5080083;28;20024;-67
2023/03/25 10:13:17;;;;;;;35.72;5.45;;;;;;;11.67;100.00;99071.88;5079254;28;20189;-66
2023/03/25 10:15:53;;;;;;;30.88;5.35;;;;;;;11.89;100.00;99076.53;5080031;28;20020;-67
2023/03/25 10:18:49;;;;;;;37.47;5.60;;;;;;;11.81;100.00;99079.63;5080173;28;20376;-67
2023/03/25 10:21:36;;;;;;;40.83;6.05;;;;;;;11.69;100.00;99080.56;5079948;28;20035;-67
2023/03/25 10:24:11;;;;;;;32.00;5.32;;;;;;;11.71;100.00;99083.78;5079426;28;20491;-67
2023/03/25 10:27:14;;;;;;;29.70;5.13;;;;;;;11.76;100.00;99083.88;5080234;28;20116;-67
2023/03/25 10:29:51;;;;;;;34.80;4.85;;;;;;;11.85;100.00;99092.34;5057747;28;20079;-68
2023/03/25 10:32:33;;;;;;;32.00;4.90;;;;;;;11.86;100.00;99080.53;5064529;28;20039;-66
2023/03/25 10:35:02;;;;;;;28.90;4.97;;;;;;;11.82;100.00;99084.78;5061476;28;20028;-66
2023/03/25 10:37:32;;;;;;;35.15;5.03;;;;;;;11.69;100.00;99085.94;5075589;28;20075;-67
2023/03/25 10:40:22;;;;;;;33.47;5.65;;;;;;;11.68;100.00;99086.16;5040224;28;20502;-67
2023/03/25 10:42:57;;;;;;;33.38;5.65;;;;;;;11.68;100.00;99088.88;5058919;28;20032;-67
2023/03/25 10:45:23;;;;;;;;;;;;;;;11.73;100.00;99086.25;5059626;28;20560;-67
2023/03/25 10:47:52;;;;;;;30.85;4.90;;;;;;;11.85;100.00;99094.25;5045595;28;19924;-70
2023/03/25 10:50:19;;;;;;;36.00;4.70;;;;;;;11.85;100.00;99083.47;5044774;28;20040;-68
2023/03/25 10:52:47;;;;;;;33.10;4.70;;;;;;;11.87;100.00;99073.25;5043861;28;20044;-68
2023/03/25 10:55:31;;;;;;;31.52;4.43;;;;;;;12.13;100.00;99086.00;5042436;28;20383;-68
2023/03/25 10:57:57;;;;;;;32.92;4.72;;;;;;;12.27;100.00;99085.59;5060749;28;20024;-68
2023/03/25 11:00:25;;;;;;;36.45;4.38;;;;;;;12.25;100.00;99090.44;5060696;28;20021;-68
2023/03/25 11:02:50;;;;;;;33.42;4.45;;;;;;;12.17;100.00;99081.72;5061698;28;20305;-67
2023/03/25 11:05:21;;;;;;;30.77;5.20;;;;;;;12.36;100.00;99092.19;5042315;28;20084;-68
2023/03/25 11:07:55;;;;;;;26.55;4.22;;;;;;;12.52;100.00;99085.91;5060771;28;20079;-68
2023/03/25 11:10:34;;;;;;;30.60;4.20;;;;;;;12.49;100.00;99088.28;5043436;28;20064;-69
2023/03/25 11:13:03;;;;;;;29.92;4.82;;;;;;;12.58;100.00;99095.69;5059799;28;20033;-68
2023/03/25 11:15:40;;;;;;;23.98;4.38;;;;;;;12.40;100.00;99096.00;5058696;28;20381;-67
2023/03/25 11:18:27;;;;;;;28.27;4.40;;;;;;;12.56;100.00;99097.81;5058955;28;20091;-67
2023/03/25 11:20:56;;;;;;;31.88;4.90;;;;;;;12.52;100.00;99095.88;5043652;28;20427;-68
2023/03/25 11:23:32;;;;;;;24.58;4.03;;;;;;;12.76;100.00;99107.19;5061166;28;20058;-68
2023/03/25 11:26:37;;;;;;;37.75;4.68;;;;;;;13.12;99.11;99101.03;5060194;28;20414;-68
2023/03/25 11:29:13;;;;;;;30.50;4.50;;;;;;;13.24;98.76;99089.22;5035300;28;20103;-67
2023/03/25 11:31:41;;;;;;;29.77;4.72;;;;;;;13.42;97.91;99099.69;5059324;28;20715;-67
2023/03/25 11:34:09;;;;;;;30.00;4.47;;;;;;;13.51;97.72;99105.38;5060255;28;20112;-67
2023/03/25 11:36:38;;;;;;;28.65;4.90;;;;;;;13.57;97.45;99094.34;5039548;28;20458;-65
2023/03/25 11:39:38;;;;;;;23.70;3.63;;;;;;;13.68;97.07;99108.78;5019571;28;20048;-67